sensor_id;sensor_type;location;lat;lon;timestamp;pressure;altitude;pressure_sealevel;temperature;humidity
55418;BME280;41287;47.554;7.844;2022-09-17T00:00:42;97745.75;;;22.73;58.63
55418;BME280;41287;47.554;7.844;2022-09-17T00:03:08;97742.66;;;22.74;58.43
55418;BME280;41287;47.554;7.844;2022-09-17T00:05:35;97736.72;;;22.72;58.81
55418;BME280;41287;47.554;7.844;2022-09-17T00:08:06;97735.97;;;22.72;58.35
55418;BME280;41287;47.554;7.844;2022-09-17T00:10:32;97739.47;;;22.72;58.35
55418;BME280;41287;47.554;7.844;2022-09-17T00:13:02;97731.28;;;22.72;58.60
55418;BME280;41287;47.554;7.844;2022-09-17T00:15:28;97738.34;;;22.73;58.52
55418;BME280;41287;47.554;7.844;2022-09-17T00:17:55;97746.53;;;22.73;58.36
55418;BME280;41287;47.554;7.844;2022-09-17T00:20:25;97746.91;;;22.72;58.79
55418;BME280;41287;47.554;7.844;2022-09-17T00:22:53;97748.47;;;22.73;58.65
55418;BME280;41287;47.554;7.844;2022-09-17T00:25:18;97736.72;;;22.72;58.37
55418;BME280;41287;47.554;7.844;2022-09-17T00:27:44;97743.81;;;22.73;58.71
55418;BME280;41287;47.554;7.844;2022-09-17T00:30:11;97746.53;;;22.73;58.89
55418;BME280;41287;47.554;7.844;2022-09-17T00:32:38;97751.22;;;22.73;58.75
55418;BME280;41287;47.554;7.844;2022-09-17T00:35:06;97753.13;;;22.72;58.63
55418;BME280;41287;47.554;7.844;2022-09-17T00:37:31;97753.13;;;22.72;58.86
55418;BME280;41287;47.554;7.844;2022-09-17T00:39:57;97759.41;;;22.73;58.54
55418;BME280;41287;47.554;7.844;2022-09-17T00:42:22;97756.69;;;22.73;58.80
55418;BME280;41287;47.554;7.844;2022-09-17T00:44:53;97751.56;;;22.71;58.51
55418;BME280;41287;47.554;7.844;2022-09-17T00:47:32;97753.50;;;22.71;58.50
55418;BME280;41287;47.554;7.844;2022-09-17T00:50:22;97744.53;;;22.70;58.77
55418;BME280;41287;47.554;7.844;2022-09-17T00:52:53;97751.22;;;22.73;58.59
55418;BME280;41287;47.554;7.844;2022-09-17T00:55:31;97754.31;;;22.71;58.37
55418;BME280;41287;47.554;7.844;2022-09-17T00:58:00;97756.69;;;22.73;58.56
55418;BME280;41287;47.554;7.844;2022-09-17T01:00:27;97760.56;;;22.72;58.56
55418;BME280;41287;47.554;7.844;2022-09-17T01:02:55;97767.97;;;22.71;58.63
55418;BME280;41287;47.554;7.844;2022-09-17T01:05:30;97773.44;;;22.71;58.81
55418;BME280;41287;47.554;7.844;2022-09-17T01:08:16;97780.03;;;22.70;58.50
55418;BME280;41287;47.554;7.844;2022-09-17T01:16:35;97780.81;;;22.71;58.46
55418;BME280;41287;47.554;7.844;2022-09-17T01:22:11;97781.97;;;22.70;58.81
55418;BME280;41287;47.554;7.844;2022-09-17T01:24:44;97787.09;;;22.71;58.84
55418;BME280;41287;47.554;7.844;2022-09-17T01:30:14;97789.03;;;22.71;58.74
55418;BME280;41287;47.554;7.844;2022-09-17T01:41:05;97795.63;;;22.70;58.78
55418;BME280;41287;47.554;7.844;2022-09-17T01:43:44;97796.78;;;22.69;58.84
55418;BME280;41287;47.554;7.844;2022-09-17T01:46:19;97792.13;;;22.69;58.93
55418;BME280;41287;47.554;7.844;2022-09-17T01:48:48;97797.56;;;22.69;58.47
55418;BME280;41287;47.554;7.844;2022-09-17T01:51:18;97798.72;;;22.68;58.52
55418;BME280;41287;47.554;7.844;2022-09-17T01:53:51;97796.00;;;22.68;58.54
55418;BME280;41287;47.554;7.844;2022-09-17T01:56:21;97800.31;;;22.69;58.54
55418;BME280;41287;47.554;7.844;2022-09-17T01:58:58;97792.13;;;22.69;58.40
55418;BME280;41287;47.554;7.844;2022-09-17T02:01:27;97789.38;;;22.69;58.89
55418;BME280;41287;47.554;7.844;2022-09-17T02:04:00;97801.09;;;22.70;58.90
55418;BME280;41287;47.554;7.844;2022-09-17T02:06:34;97803.03;;;22.69;58.95
55418;BME280;41287;47.554;7.844;2022-09-17T02:09:14;97804.19;;;22.68;58.67
55418;BME280;41287;47.554;7.844;2022-09-17T02:11:43;97805.78;;;22.69;58.73
55418;BME280;41287;47.554;7.844;2022-09-17T02:14:23;97812.38;;;22.68;58.95
55418;BME280;41287;47.554;7.844;2022-09-17T02:16:55;97808.50;;;22.69;58.61
55418;BME280;41287;47.554;7.844;2022-09-17T02:19:29;97808.50;;;22.69;58.60
55418;BME280;41287;47.554;7.844;2022-09-17T02:22:26;97810.81;;;22.67;58.61
55418;BME280;41287;47.554;7.844;2022-09-17T02:28:01;97813.19;;;22.69;58.65
55418;BME280;41287;47.554;7.844;2022-09-17T02:30:29;97817.50;;;22.70;58.85
55418;BME280;41287;47.554;7.844;2022-09-17T02:32:55;97813.97;;;22.69;58.71
55418;BME280;41287;47.554;7.844;2022-09-17T02:35:20;97815.13;;;22.68;58.46
55418;BME280;41287;47.554;7.844;2022-09-17T02:37:46;97818.63;;;22.69;58.65
55418;BME280;41287;47.554;7.844;2022-09-17T02:40:13;97815.13;;;22.68;58.69
55418;BME280;41287;47.554;7.844;2022-09-17T02:43:03;97810.00;;;22.67;58.85
55418;BME280;41287;47.554;7.844;2022-09-17T02:45:43;97819.44;;;22.69;58.58
55418;BME280;41287;47.554;7.844;2022-09-17T02:48:27;97815.47;;;22.67;58.49
55418;BME280;41287;47.554;7.844;2022-09-17T02:59:28;97809.66;;;22.68;58.45
55418;BME280;41287;47.554;7.844;2022-09-17T03:02:04;97817.41;;;22.66;58.64
55418;BME280;41287;47.554;7.844;2022-09-17T03:04:33;97817.06;;;22.68;58.74
55418;BME280;41287;47.554;7.844;2022-09-17T03:06:59;97809.66;;;22.68;58.68
55418;BME280;41287;47.554;7.844;2022-09-17T03:09:30;97812.75;;;22.67;58.62
55418;BME280;41287;47.554;7.844;2022-09-17T03:11:57;97806.13;;;22.68;58.73
55418;BME280;41287;47.554;7.844;2022-09-17T03:14:23;97802.59;;;22.67;58.49
55418;BME280;41287;47.554;7.844;2022-09-17T03:16:48;97808.06;;;22.67;58.84
55418;BME280;41287;47.554;7.844;2022-09-17T03:19:13;97805.34;;;22.67;58.90
55418;BME280;41287;47.554;7.844;2022-09-17T03:21:39;97798.28;;;22.66;58.66
55418;BME280;41287;47.554;7.844;2022-09-17T03:24:04;97799.88;;;22.67;58.55
55418;BME280;41287;47.554;7.844;2022-09-17T03:26:30;97806.50;;;22.66;58.78
55418;BME280;41287;47.554;7.844;2022-09-17T03:28:55;97812.38;;;22.68;58.88
55418;BME280;41287;47.554;7.844;2022-09-17T03:31:20;97812.38;;;22.68;58.87
55418;BME280;41287;47.554;7.844;2022-09-17T03:33:46;97811.59;;;22.68;58.68
55418;BME280;41287;47.554;7.844;2022-09-17T03:36:11;97816.25;;;22.67;58.50
55418;BME280;41287;47.554;7.844;2022-09-17T03:38:37;97810.81;;;22.67;58.64
55418;BME280;41287;47.554;7.844;2022-09-17T03:41:05;97817.06;;;22.68;58.65
55418;BME280;41287;47.554;7.844;2022-09-17T03:43:33;97813.53;;;22.67;58.70
55418;BME280;41287;47.554;7.844;2022-09-17T03:45:59;97824.47;;;22.67;58.85
55418;BME280;41287;47.554;7.844;2022-09-17T03:48:27;97816.25;;;22.67;58.98
55418;BME280;41287;47.554;7.844;2022-09-17T03:50:53;97826.84;;;22.69;58.62
55418;BME280;41287;47.554;7.844;2022-09-17T03:53:19;97818.22;;;22.67;58.70
55418;BME280;41287;47.554;7.844;2022-09-17T03:55:44;97821.72;;;22.67;58.81
55418;BME280;41287;47.554;7.844;2022-09-17T03:58:10;97829.91;;;22.67;58.59
55418;BME280;41287;47.554;7.844;2022-09-17T04:00:35;97829.91;;;22.67;58.80
55418;BME280;41287;47.554;7.844;2022-09-17T04:03:03;97831.88;;;22.67;58.53
55418;BME280;41287;47.554;7.844;2022-09-17T04:05:28;97834.59;;;22.67;58.45
55418;BME280;41287;47.554;7.844;2022-09-17T04:07:53;97837.31;;;22.67;58.54
55418;BME280;41287;47.554;7.844;2022-09-17T04:10:19;97836.53;;;22.66;58.91
55418;BME280;41287;47.554;7.844;2022-09-17T04:12:44;97840.06;;;22.67;58.52
55418;BME280;41287;47.554;7.844;2022-09-17T04:15:10;97840.06;;;22.67;58.77
55418;BME280;41287;47.554;7.844;2022-09-17T04:17:35;97835.38;;;22.67;58.60
55418;BME280;41287;47.554;7.844;2022-09-17T04:20:01;97839.25;;;22.66;58.84
55418;BME280;41287;47.554;7.844;2022-09-17T04:22:27;97843.56;;;22.67;58.96
55418;BME280;41287;47.554;7.844;2022-09-17T04:24:54;97850.19;;;22.66;58.66
55418;BME280;41287;47.554;7.844;2022-09-17T04:27:22;97848.25;;;22.67;58.63
55418;BME280;41287;47.554;7.844;2022-09-17T04:29:50;97849.03;;;22.67;59.26
55418;BME280;41287;47.554;7.844;2022-09-17T04:32:16;97859.19;;;22.67;58.91
55418;BME280;41287;47.554;7.844;2022-09-17T04:34:41;97856.44;;;22.67;58.80
55418;BME280;41287;47.554;7.844;2022-09-17T04:37:06;97858.38;;;22.66;58.78
55418;BME280;41287;47.554;7.844;2022-09-17T04:39:32;97871.25;;;22.66;59.10
55418;BME280;41287;47.554;7.844;2022-09-17T04:41:59;97872.03;;;22.66;59.02
55418;BME280;41287;47.554;7.844;2022-09-17T04:44:27;97874.78;;;22.66;58.83
55418;BME280;41287;47.554;7.844;2022-09-17T04:46:52;97874.78;;;22.66;58.81
55418;BME280;41287;47.554;7.844;2022-09-17T04:49:18;97871.25;;;22.66;58.67
55418;BME280;41287;47.554;7.844;2022-09-17T04:51:45;97873.22;;;22.65;58.98
55418;BME280;41287;47.554;7.844;2022-09-17T04:54:13;97877.50;;;22.66;58.95
55418;BME280;41287;47.554;7.844;2022-09-17T04:56:38;97878.69;;;22.65;58.90
55418;BME280;41287;47.554;7.844;2022-09-17T04:59:04;97887.63;;;22.66;58.99
55418;BME280;41287;47.554;7.844;2022-09-17T05:01:29;97881.41;;;22.65;58.95
55418;BME280;41287;47.554;7.844;2022-09-17T05:03:54;97884.16;;;22.65;59.00
55418;BME280;41287;47.554;7.844;2022-09-17T05:06:20;97892.34;;;22.65;58.74
55418;BME280;41287;47.554;7.844;2022-09-17T05:08:45;97889.59;;;22.65;58.50
55418;BME280;41287;47.554;7.844;2022-09-17T05:11:11;97892.34;;;22.65;58.54
55418;BME280;41287;47.554;7.844;2022-09-17T05:13:38;97886.88;;;22.65;58.62
55418;BME280;41287;47.554;7.844;2022-09-17T05:16:04;97895.06;;;22.65;58.75
55418;BME280;41287;47.554;7.844;2022-09-17T05:18:29;97897.00;;;22.65;59.00
55418;BME280;41287;47.554;7.844;2022-09-17T05:20:55;97891.53;;;22.65;58.77
55418;BME280;41287;47.554;7.844;2022-09-17T05:23:21;97892.69;;;22.64;59.01
55418;BME280;41287;47.554;7.844;2022-09-17T05:25:46;97891.91;;;22.63;58.75
55418;BME280;41287;47.554;7.844;2022-09-17T05:28:11;97892.69;;;22.64;58.77
55418;BME280;41287;47.554;7.844;2022-09-17T05:30:37;97898.94;;;22.64;58.79
55418;BME280;41287;47.554;7.844;2022-09-17T05:33:05;97898.94;;;22.64;58.94
55418;BME280;41287;47.554;7.844;2022-09-17T05:35:32;97907.13;;;22.64;59.06
55418;BME280;41287;47.554;7.844;2022-09-17T05:38:03;97919.22;;;22.63;58.91
55418;BME280;41287;47.554;7.844;2022-09-17T05:40:29;97927.06;;;22.65;59.00
55418;BME280;41287;47.554;7.844;2022-09-17T05:43:02;97933.66;;;22.64;58.69
55418;BME280;41287;47.554;7.844;2022-09-17T05:45:28;97930.94;;;22.64;58.56
55418;BME280;41287;47.554;7.844;2022-09-17T05:47:57;97930.13;;;22.63;58.67
55418;BME280;41287;47.554;7.844;2022-09-17T05:50:25;97927.06;;;22.65;59.10
55418;BME280;41287;47.554;7.844;2022-09-17T05:52:51;97935.59;;;22.63;58.88
55418;BME280;41287;47.554;7.844;2022-09-17T05:55:18;97935.59;;;22.63;58.81
55418;BME280;41287;47.554;7.844;2022-09-17T05:57:44;97935.59;;;22.63;58.50
55418;BME280;41287;47.554;7.844;2022-09-17T06:00:10;97938.34;;;22.63;58.94
55418;BME280;41287;47.554;7.844;2022-09-17T06:02:36;97938.34;;;22.63;58.70
55418;BME280;41287;47.554;7.844;2022-09-17T06:05:01;97937.53;;;22.63;58.81
55418;BME280;41287;47.554;7.844;2022-09-17T06:07:28;97936.41;;;22.64;59.05
55418;BME280;41287;47.554;7.844;2022-09-17T06:09:53;97937.53;;;22.63;59.15
55418;BME280;41287;47.554;7.844;2022-09-17T06:12:21;97943.78;;;22.63;58.84
55418;BME280;41287;47.554;7.844;2022-09-17T06:14:47;97947.69;;;22.62;58.53
55418;BME280;41287;47.554;7.844;2022-09-17T06:17:12;97956.66;;;22.63;58.52
55418;BME280;41287;47.554;7.844;2022-09-17T06:19:38;97953.13;;;22.62;59.05
55418;BME280;41287;47.554;7.844;2022-09-17T06:22:03;97950.41;;;22.62;58.77
55418;BME280;41287;47.554;7.844;2022-09-17T06:24:31;97957.44;;;22.63;58.81
55418;BME280;41287;47.554;7.844;2022-09-17T06:26:57;97971.09;;;22.63;58.88
55418;BME280;41287;47.554;7.844;2022-09-17T06:29:22;97975.78;;;22.63;58.94
55418;BME280;41287;47.554;7.844;2022-09-17T06:31:48;97979.31;;;22.63;59.12
55418;BME280;41287;47.554;7.844;2022-09-17T06:34:14;97983.19;;;22.62;58.72
55418;BME280;41287;47.554;7.844;2022-09-17T06:36:40;97978.88;;;22.61;58.80
55418;BME280;41287;47.554;7.844;2022-09-17T06:39:06;97989.78;;;22.61;58.76
55418;BME280;41287;47.554;7.844;2022-09-17T06:41:31;97988.63;;;22.62;58.91
55418;BME280;41287;47.554;7.844;2022-09-17T06:43:57;97992.16;;;22.63;58.69
55418;BME280;41287;47.554;7.844;2022-09-17T06:46:23;98003.88;;;22.63;58.64
55418;BME280;41287;47.554;7.844;2022-09-17T06:48:48;97999.56;;;22.62;58.75
55418;BME280;41287;47.554;7.844;2022-09-17T06:51:13;98000.34;;;22.63;58.92
55418;BME280;41287;47.554;7.844;2022-09-17T06:53:39;98000.34;;;22.63;58.73
55418;BME280;41287;47.554;7.844;2022-09-17T06:56:06;98005.03;;;22.62;58.79
55418;BME280;41287;47.554;7.844;2022-09-17T06:58:33;98003.09;;;22.63;58.70
55418;BME280;41287;47.554;7.844;2022-09-17T07:01:01;98005.03;;;22.62;58.78
55418;BME280;41287;47.554;7.844;2022-09-17T07:03:29;98002.28;;;22.62;58.62
55418;BME280;41287;47.554;7.844;2022-09-17T07:05:55;98002.66;;;22.61;58.69
55418;BME280;41287;47.554;7.844;2022-09-17T07:08:21;98009.25;;;22.60;58.76
55418;BME280;41287;47.554;7.844;2022-09-17T07:10:47;98015.16;;;22.62;59.03
55418;BME280;41287;47.554;7.844;2022-09-17T07:13:12;98006.53;;;22.60;59.09
55418;BME280;41287;47.554;7.844;2022-09-17T07:15:37;98007.31;;;22.60;59.01
55418;BME280;41287;47.554;7.844;2022-09-17T07:18:07;98015.50;;;22.60;58.97
55418;BME280;41287;47.554;7.844;2022-09-17T07:20:33;98013.56;;;22.61;58.87
55418;BME280;41287;47.554;7.844;2022-09-17T07:22:59;98019.84;;;22.61;58.80
55418;BME280;41287;47.554;7.844;2022-09-17T07:25:25;98013.56;;;22.61;58.96
55418;BME280;41287;47.554;7.844;2022-09-17T07:27:53;98014.38;;;22.61;58.69
55418;BME280;41287;47.554;7.844;2022-09-17T07:30:19;98020.97;;;22.60;59.18
55418;BME280;41287;47.554;7.844;2022-09-17T07:32:47;98019.84;;;22.61;59.03
55418;BME280;41287;47.554;7.844;2022-09-17T07:35:15;98016.31;;;22.61;58.83
55418;BME280;41287;47.554;7.844;2022-09-17T07:37:41;98019.03;;;22.61;58.79
55418;BME280;41287;47.554;7.844;2022-09-17T07:40:06;98010.06;;;22.60;59.24
55418;BME280;41287;47.554;7.844;2022-09-17T07:42:32;98012.88;;;22.64;59.46
55418;BME280;41287;47.554;7.844;2022-09-17T07:45:00;98013.66;;;22.64;59.19
55418;BME280;41287;47.554;7.844;2022-09-17T07:47:25;98020.72;;;22.65;59.50
55418;BME280;41287;47.554;7.844;2022-09-17T07:49:51;98026.22;;;22.69;59.50
55418;BME280;41287;47.554;7.844;2022-09-17T07:52:16;98030.19;;;22.71;59.62
55418;BME280;41287;47.554;7.844;2022-09-17T07:54:41;98030.25;;;22.75;60.51
55418;BME280;41287;47.554;7.844;2022-09-17T07:57:07;98029.16;;;22.79;61.11
55418;BME280;41287;47.554;7.844;2022-09-17T07:59:32;98024.94;;;22.82;62.14
55418;BME280;41287;47.554;7.844;2022-09-17T08:01:58;98032.78;;;22.83;63.05
55418;BME280;41287;47.554;7.844;2022-09-17T08:04:23;98031.25;;;22.86;63.71
55418;BME280;41287;47.554;7.844;2022-09-17T08:06:48;98034.06;;;22.90;65.13
55418;BME280;41287;47.554;7.844;2022-09-17T08:09:15;98038.81;;;22.93;66.03
55418;BME280;41287;47.554;7.844;2022-09-17T08:11:43;98039.22;;;22.95;67.21
55418;BME280;41287;47.554;7.844;2022-09-17T08:14:10;98032.25;;;22.97;67.90
55418;BME280;41287;47.554;7.844;2022-09-17T08:16:37;98025.25;;;23.00;68.48
55418;BME280;41287;47.554;7.844;2022-09-17T08:19:02;98020.22;;;23.02;69.17
55418;BME280;41287;47.554;7.844;2022-09-17T08:21:27;98025.75;;;23.05;69.81
55418;BME280;41287;47.554;7.844;2022-09-17T08:23:53;98029.69;;;23.08;70.59
55418;BME280;41287;47.554;7.844;2022-09-17T08:26:20;98034.88;;;23.13;71.31
55418;BME280;41287;47.554;7.844;2022-09-17T08:28:49;98033.31;;;23.15;71.96
55418;BME280;41287;47.554;7.844;2022-09-17T08:31:16;98037.28;;;23.18;72.27
55418;BME280;41287;47.554;7.844;2022-09-17T08:33:43;98039.28;;;23.21;73.73
55418;BME280;41287;47.554;7.844;2022-09-17T08:36:11;98032.25;;;23.20;70.93
55418;BME280;41287;47.554;7.844;2022-09-17T08:38:37;98038.78;;;23.15;68.90
55418;BME280;41287;47.554;7.844;2022-09-17T08:46:24;98047.34;;;22.91;60.48
55418;BME280;41287;47.554;7.844;2022-09-17T08:52:10;98045.16;;;22.77;57.39
55418;BME280;41287;47.554;7.844;2022-09-17T08:57:23;98049.66;;;22.70;55.95
55418;BME280;41287;47.554;7.844;2022-09-17T09:00:08;98051.09;;;22.64;51.04
55418;BME280;41287;47.554;7.844;2022-09-17T09:05:43;98055.13;;;22.51;52.60
55418;BME280;41287;47.554;7.844;2022-09-17T09:08:30;98048.09;;;22.50;54.04
55418;BME280;41287;47.554;7.844;2022-09-17T09:11:02;98056.28;;;22.50;53.56
55418;BME280;41287;47.554;7.844;2022-09-17T09:13:32;98062.53;;;22.50;53.19
55418;BME280;41287;47.554;7.844;2022-09-17T09:16:01;98054.34;;;22.50;53.62
55418;BME280;41287;47.554;7.844;2022-09-17T09:18:34;98060.94;;;22.49;54.08
55418;BME280;41287;47.554;7.844;2022-09-17T09:26:15;98060.59;;;22.51;53.42
55418;BME280;41287;47.554;7.844;2022-09-17T09:32:06;98057.06;;;22.50;53.89
55418;BME280;41287;47.554;7.844;2022-09-17T09:34:41;98065.25;;;22.50;54.01
55418;BME280;41287;47.554;7.844;2022-09-17T09:37:17;98063.69;;;22.49;53.60
55418;BME280;41287;47.554;7.844;2022-09-17T09:39:45;98066.41;;;22.49;53.17
55418;BME280;41287;47.554;7.844;2022-09-17T09:44:49;98068.34;;;22.49;53.43
55418;BME280;41287;47.554;7.844;2022-09-17T09:47:31;98074.16;;;22.47;53.21
55418;BME280;41287;47.554;7.844;2022-09-17T09:52:55;98077.25;;;22.45;52.92
55418;BME280;41287;47.554;7.844;2022-09-17T10:00:41;98075.69;;;22.44;52.29
55418;BME280;41287;47.554;7.844;2022-09-17T10:03:27;98076.41;;;22.41;52.22
55418;BME280;41287;47.554;7.844;2022-09-17T10:05:57;98080.72;;;22.42;52.31
55418;BME280;41287;47.554;7.844;2022-09-17T10:08:23;98085.38;;;22.42;52.45
55418;BME280;41287;47.554;7.844;2022-09-17T10:13:22;98091.19;;;22.40;52.64
55418;BME280;41287;47.554;7.844;2022-09-17T10:15:48;98090.84;;;22.42;52.86
55418;BME280;41287;47.554;7.844;2022-09-17T10:18:21;98087.31;;;22.41;52.98
55418;BME280;41287;47.554;7.844;2022-09-17T10:20:57;98089.25;;;22.41;52.86
55418;BME280;41287;47.554;7.844;2022-09-17T10:23:25;98080.72;;;22.42;53.18
55418;BME280;41287;47.554;7.844;2022-09-17T10:25:52;98077.19;;;22.42;53.23
55418;BME280;41287;47.554;7.844;2022-09-17T10:28:30;98078.78;;;22.43;53.60
55418;BME280;41287;47.554;7.844;2022-09-17T10:30:58;98078.41;;;22.44;53.79
55418;BME280;41287;47.554;7.844;2022-09-17T10:33:32;98069.78;;;22.42;54.10
55418;BME280;41287;47.554;7.844;2022-09-17T10:36:05;98080.34;;;22.44;54.07
55418;BME280;41287;47.554;7.844;2022-09-17T10:38:39;98080.34;;;22.44;54.59
55418;BME280;41287;47.554;7.844;2022-09-17T10:41:13;98067.84;;;22.43;54.61
55418;BME280;41287;47.554;7.844;2022-09-17T10:43:39;98064.78;;;22.44;54.86
55418;BME280;41287;47.554;7.844;2022-09-17T10:46:08;98072.97;;;22.44;54.74
55418;BME280;41287;47.554;7.844;2022-09-17T10:48:44;98069.44;;;22.44;55.24
55418;BME280;41287;47.554;7.844;2022-09-17T10:51:19;98070.59;;;22.43;55.44
55418;BME280;41287;47.554;7.844;2022-09-17T10:56:34;98078.78;;;22.43;55.23
55418;BME280;41287;47.554;7.844;2022-09-17T10:59:23;98071.72;;;22.42;53.65
55418;BME280;41287;47.554;7.844;2022-09-17T11:02:21;98069.44;;;22.44;52.97
55418;BME280;41287;47.554;7.844;2022-09-17T11:07:18;98064.69;;;22.41;51.53
55418;BME280;41287;47.554;7.844;2022-09-17T11:12:22;98065.81;;;22.40;50.36
55418;BME280;41287;47.554;7.844;2022-09-17T11:15:00;98061.88;;;22.37;49.47
55418;BME280;41287;47.554;7.844;2022-09-17T11:17:34;98069.28;;;22.37;48.86
55418;BME280;41287;47.554;7.844;2022-09-17T11:29:06;98056.69;;;22.32;47.07
55418;BME280;41287;47.554;7.844;2022-09-17T11:31:52;98051.69;;;22.34;48.89
55418;BME280;41287;47.554;7.844;2022-09-17T11:39:50;98052.03;;;22.33;49.63
55418;BME280;41287;47.554;7.844;2022-09-17T11:42:23;98050.88;;;22.34;49.50
55418;BME280;41287;47.554;7.844;2022-09-17T11:45:05;98047.00;;;22.35;50.19
55418;BME280;41287;47.554;7.844;2022-09-17T11:48:26;98053.63;;;22.34;50.61
55418;BME280;41287;47.554;7.844;2022-09-17T11:50:35;98052.03;;;22.33;51.29
55418;BME280;41287;47.554;7.844;2022-09-17T11:53:16;98058.72;;;22.35;51.87
55418;BME280;41287;47.554;7.844;2022-09-17T11:56:33;98060.66;;;22.35;52.35
55418;BME280;41287;47.554;7.844;2022-09-17T11:58:44;98053.63;;;22.34;52.26
55418;BME280;41287;47.554;7.844;2022-09-17T12:01:25;98050.09;;;22.33;52.50
55418;BME280;41287;47.554;7.844;2022-09-17T12:04:28;98049.28;;;22.33;53.20
55418;BME280;41287;47.554;7.844;2022-09-17T12:09:52;98042.69;;;22.34;53.34
55418;BME280;41287;47.554;7.844;2022-09-17T12:12:21;98030.97;;;22.33;53.46
55418;BME280;41287;47.554;7.844;2022-09-17T12:14:50;98039.97;;;22.34;53.48
55418;BME280;41287;47.554;7.844;2022-09-17T12:17:37;98037.59;;;22.32;54.13
55418;BME280;41287;47.554;7.844;2022-09-17T12:20:07;98037.22;;;22.34;53.70
55418;BME280;41287;47.554;7.844;2022-09-17T12:22:40;98039.97;;;22.34;54.12
55418;BME280;41287;47.554;7.844;2022-09-17T12:25:11;98040.75;;;22.34;54.03
55418;BME280;41287;47.554;7.844;2022-09-17T12:30:20;98043.50;;;22.34;54.34
55418;BME280;41287;47.554;7.844;2022-09-17T12:32:56;98047.38;;;22.33;54.40
55418;BME280;41287;47.554;7.844;2022-09-17T12:41:18;98036.44;;;22.33;54.78
55418;BME280;41287;47.554;7.844;2022-09-17T13:00:20;98042.69;;;22.34;55.03
55418;BME280;41287;47.554;7.844;2022-09-17T13:03:03;98041.09;;;22.33;54.73
55418;BME280;41287;47.554;7.844;2022-09-17T13:05:39;98041.91;;;22.33;55.25
55418;BME280;41287;47.554;7.844;2022-09-17T13:11:36;98039.16;;;22.33;54.99
55418;BME280;41287;47.554;7.844;2022-09-17T13:14:21;98043.50;;;22.34;54.99
55418;BME280;41287;47.554;7.844;2022-09-17T13:16:57;98040.75;;;22.34;55.28
55418;BME280;41287;47.554;7.844;2022-09-17T13:22:48;98040.75;;;22.34;54.94
55418;BME280;41287;47.554;7.844;2022-09-17T13:25:16;98030.63;;;22.35;55.36
55418;BME280;41287;47.554;7.844;2022-09-17T13:27:43;98038.03;;;22.34;55.08
55418;BME280;41287;47.554;7.844;2022-09-17T13:30:10;98038.81;;;22.35;55.16
55418;BME280;41287;47.554;7.844;2022-09-17T13:37:36;98038.81;;;22.35;55.23
55418;BME280;41287;47.554;7.844;2022-09-17T13:40:03;98047.81;;;22.35;55.49
55418;BME280;41287;47.554;7.844;2022-09-17T13:42:41;98054.41;;;22.34;55.30
55418;BME280;41287;47.554;7.844;2022-09-17T13:45:10;98050.53;;;22.35;55.58
55418;BME280;41287;47.554;7.844;2022-09-17T13:47:51;98040.75;;;22.34;55.54
55418;BME280;41287;47.554;7.844;2022-09-17T13:50:37;98048.94;;;22.34;55.51
55418;BME280;41287;47.554;7.844;2022-09-17T13:55:48;98036.09;;;22.35;55.59
55418;BME280;41287;47.554;7.844;2022-09-17T14:00:55;98038.81;;;22.35;55.55
55418;BME280;41287;47.554;7.844;2022-09-17T14:05:53;98036.88;;;22.35;55.43
55418;BME280;41287;47.554;7.844;2022-09-17T14:16:34;98031.06;;;22.37;55.30
55418;BME280;41287;47.554;7.844;2022-09-17T14:21:28;98029.47;;;22.36;56.00
55418;BME280;41287;47.554;7.844;2022-09-17T14:23:57;98032.22;;;22.36;55.81
55418;BME280;41287;47.554;7.844;2022-09-17T14:26:45;98036.09;;;22.35;55.49
55418;BME280;41287;47.554;7.844;2022-09-17T14:29:23;98022.44;;;22.35;55.66
55418;BME280;41287;47.554;7.844;2022-09-17T14:31:51;98031.06;;;22.37;55.68
55418;BME280;41287;47.554;7.844;2022-09-17T14:34:20;98037.69;;;22.36;55.61
55418;BME280;41287;47.554;7.844;2022-09-17T14:36:47;98035.75;;;22.36;55.61
55418;BME280;41287;47.554;7.844;2022-09-17T14:39:20;98038.81;;;22.35;55.56
55418;BME280;41287;47.554;7.844;2022-09-17T14:41:46;98032.22;;;22.36;56.06
55418;BME280;41287;47.554;7.844;2022-09-17T14:44:18;98032.22;;;22.36;55.70
55418;BME280;41287;47.554;7.844;2022-09-17T14:46:51;98025.97;;;22.35;55.77
55418;BME280;41287;47.554;7.844;2022-09-17T14:49:31;98032.56;;;22.34;55.70
55418;BME280;41287;47.554;7.844;2022-09-17T14:51:58;98034.94;;;22.36;56.06
55418;BME280;41287;47.554;7.844;2022-09-17T14:54:26;98033.81;;;22.37;55.89
55418;BME280;41287;47.554;7.844;2022-09-17T14:56:57;98036.88;;;22.35;55.91
55418;BME280;41287;47.554;7.844;2022-09-17T14:59:40;98031.41;;;22.35;55.89
55418;BME280;41287;47.554;7.844;2022-09-17T15:04:48;98034.59;;;22.37;56.06
55418;BME280;41287;47.554;7.844;2022-09-17T15:07:13;98024.03;;;22.36;55.92
55418;BME280;41287;47.554;7.844;2022-09-17T15:09:39;98034.16;;;22.35;56.26
55418;BME280;41287;47.554;7.844;2022-09-17T15:12:05;98033.81;;;22.37;55.82
55418;BME280;41287;47.554;7.844;2022-09-17T15:14:35;98031.84;;;22.37;56.11
55418;BME280;41287;47.554;7.844;2022-09-17T15:17:05;98029.47;;;22.36;56.07
55418;BME280;41287;47.554;7.844;2022-09-17T15:19:42;98019.72;;;22.35;55.96
55418;BME280;41287;47.554;7.844;2022-09-17T15:22:16;98031.41;;;22.35;56.20
55418;BME280;41287;47.554;7.844;2022-09-17T15:27:18;98040.41;;;22.36;56.10
55418;BME280;41287;47.554;7.844;2022-09-17T15:29:49;98038.47;;;22.36;55.82
55418;BME280;41287;47.554;7.844;2022-09-17T15:32:15;98038.47;;;22.36;55.84
55418;BME280;41287;47.554;7.844;2022-09-17T15:34:41;98041.19;;;22.36;56.11
55418;BME280;41287;47.554;7.844;2022-09-17T15:37:18;98042.34;;;22.35;56.02
55418;BME280;41287;47.554;7.844;2022-09-17T15:39:50;98040.41;;;22.36;56.11
55418;BME280;41287;47.554;7.844;2022-09-17T15:42:28;98044.28;;;22.35;56.26
55418;BME280;41287;47.554;7.844;2022-09-17T15:45:27;98037.22;;;22.34;56.25
55418;BME280;41287;47.554;7.844;2022-09-17T15:48:00;98043.13;;;22.36;56.18